F/V Mailys Charlie — FMIW — position and weather

sailwx.info

Track history (hours):
 
Tides and Currents Weather Stations Pressure Air Temp Water Temp Dewpoint Dewpoint Depression Visibility Wind Speed Wind Dir Waves Ship Positions

F/V Mailys Charlie

Last reported at 2016-Aug-24 12:15 UTC. Time now 2016-Aug-29 21:40 UTC.
Position N 46°03' W 004°46'.

Length 19 m.

Type: Fishing. MMSI: 228240800.

Date/timePositionNaut miles runAvg speedWind from/ knotsBaromVisibWave heightAir tempDewpointWater temp
2016-Aug-24 12:15N 46°03' W 004°46'25 6.9
2016-Aug-24 08:33N 46°21' W 004°20'7 6.7
2016-Aug-24 07:33N 46°25' W 004°12'19 6.3
2016-Aug-24 04:33N 46°37' W 003°51'6 5.7
2016-Aug-24 03:33N 46°40' W 003°44'6 6.0
2016-Aug-24 02:33N 46°44' W 003°37'7 6.6
2016-Aug-24 01:33N 46°48' W 003°29'7 7.0
2016-Aug-24 00:33N 46°51' W 003°21'9 9.2
2016-Aug-23 23:33N 46°57' W 003°10'9 9.2
2016-Aug-23 22:33N 47°02' W 002°59'9 9.1
2016-Aug-23 21:34N 47°08' W 002°49'8 8.5
2016-Aug-23 20:34N 47°13' W 002°39'9 8.8
2016-Aug-23 19:33N 47°20' W 002°31'1 0.5
2016-Aug-23 18:34N 47°21' W 002°31'0 0.0
2016-Aug-23 17:34N 47°21' W 002°31'0 0.0
2016-Aug-23 16:34N 47°21' W 002°31'0 0.0
2016-Aug-23 15:33N 47°21' W 002°31'0 0.0
2016-Aug-23 14:30N 47°21' W 002°31'0 0.0
2016-Aug-23 09:30N 47°21' W 002°31'0 0.0
2016-Aug-23 08:33N 47°21' W 002°31'0 0.0
2016-Aug-23 07:33N 47°21' W 002°31'0 0.0
2016-Aug-23 06:33N 47°21' W 002°31'0 0.0
2016-Aug-23 05:30N 47°21' W 002°31'0 0.0
2016-Aug-23 04:33N 47°21' W 002°31'0 0.0
2016-Aug-23 03:33N 47°21' W 002°31'0 0.0
2016-Aug-23 02:34N 47°21' W 002°31'0 0.0
2016-Aug-23 01:26N 47°21' W 002°31'0 0.0
2016-Aug-23 00:33N 47°21' W 002°31'0 0.0
2016-Aug-22 23:34N 47°21' W 002°31'0 0.0
2016-Aug-22 22:33N 47°21' W 002°31'0 0.0
2016-Aug-22 19:30N 47°21' W 002°31'0 0.0
2016-Aug-22 18:27N 47°21' W 002°31'0 0.0
2016-Aug-22 16:22N 47°21' W 002°31'0 0.0
2016-Aug-22 15:33N 47°21' W 002°31'0 0.0
2016-Aug-22 14:33N 47°21' W 002°31'0 0.0
2016-Aug-22 13:27N 47°21' W 002°31'0 0.0
2016-Aug-22 12:30N 47°21' W 002°31'0 0.0
2016-Aug-22 11:31N 47°21' W 002°31'0 0.0
2016-Aug-22 10:31N 47°21' W 002°31'0 0.0
2016-Aug-22 09:33N 47°21' W 002°31'0 0.0
2016-Aug-22 08:33N 47°21' W 002°31'0 0.0
2016-Aug-22 07:32N 47°21' W 002°31'0 0.1
2016-Aug-22 06:33N 47°21' W 002°31'0 0.0
2016-Aug-22 05:33N 47°21' W 002°31'0 0.0
2016-Aug-22 04:33N 47°21' W 002°31'0 0.0
2016-Aug-22 03:33N 47°21' W 002°31'0 0.0
2016-Aug-22 02:33N 47°21' W 002°31'0 0.0
2016-Aug-22 01:33N 47°21' W 002°31'0 0.0
2016-Aug-22 00:33N 47°21' W 002°31'0 0.0
2016-Aug-21 23:28N 47°21' W 002°31'0 0.0
2016-Aug-21 22:33N 47°21' W 002°31'0 0.0
2016-Aug-21 21:33N 47°21' W 002°31'0 0.0
2016-Aug-21 20:33N 47°21' W 002°31'0 0.0
2016-Aug-21 19:33N 47°21' W 002°31'0 0.0
2016-Aug-21 18:33N 47°21' W 002°31'0 0.0
2016-Aug-21 17:33N 47°21' W 002°31'0 0.4
2016-Aug-21 16:33N 47°20' W 002°31'10 9.8
2016-Aug-21 15:34N 47°13' W 002°40'1010.1
2016-Aug-21 14:33N 47°08' W 002°53'1010.4
2016-Aug-21 13:33N 47°02' W 003°05'  
2016-Aug-19 04:34N 45°10' W 004°20'24 0.5
2016-Aug-17 07:09N 45°33' W 004°29'4 6.4
2016-Aug-17 06:33N 45°29' W 004°28'6 6.3
2016-Aug-17 05:34N 45°23' W 004°26'6 6.4
2016-Aug-17 04:34N 45°17' W 004°23'5 3.7
2016-Aug-17 03:06N 45°13' W 004°19'8 0.5
2016-Aug-16 10:18N 45°05' W 004°15'1 0.9
2016-Aug-16 09:09N 45°06' W 004°15'1 1.0
2016-Aug-16 08:23N 45°07' W 004°16'1 1.0
2016-Aug-16 07:33N 45°08' W 004°17'6 0.4
2016-Aug-15 17:07N 45°11' W 004°09'11 1.9
2016-Aug-15 11:33N 45°18' W 004°20'6 6.3
2016-Aug-15 10:33N 45°12' W 004°19'6 4.4
2016-Aug-15 09:12N 45°06' W 004°17'23 1.4
2016-Aug-14 16:33N 44°51' W 003°53'16 5.3
2016-Aug-14 13:33N 45°04' W 004°06'6 5.6
2016-Aug-14 12:33N 45°08' W 004°11'  
Track history (hours):
 
Tides and Currents Weather Stations Pressure Air Temp Water Temp Dewpoint Dewpoint Depression Visibility Wind Speed Wind Dir Waves Ship Positions

F/V Mailys Charlie

Last reported at 2016-Aug-24 12:15 UTC. Time now 2016-Aug-29 21:40 UTC.
Position N 46°03' W 004°46'.

Length 19 m.

Type: Fishing. MMSI: 228240800.

Date/timePositionNaut miles runAvg speedWind from/ knotsBaromVisibWave heightAir tempDewpointWater temp
2016-Aug-24 12:15N 46°03' W 004°46'25 6.9
2016-Aug-24 08:33N 46°21' W 004°20'7 6.7
2016-Aug-24 07:33N 46°25' W 004°12'19 6.3
2016-Aug-24 04:33N 46°37' W 003°51'6 5.7
2016-Aug-24 03:33N 46°40' W 003°44'6 6.0
2016-Aug-24 02:33N 46°44' W 003°37'7 6.6
2016-Aug-24 01:33N 46°48' W 003°29'7 7.0
2016-Aug-24 00:33N 46°51' W 003°21'9 9.2
2016-Aug-23 23:33N 46°57' W 003°10'9 9.2
2016-Aug-23 22:33N 47°02' W 002°59'9 9.1
2016-Aug-23 21:34N 47°08' W 002°49'8 8.5
2016-Aug-23 20:34N 47°13' W 002°39'9 8.8
2016-Aug-23 19:33N 47°20' W 002°31'1 0.5
2016-Aug-23 18:34N 47°21' W 002°31'0 0.0
2016-Aug-23 17:34N 47°21' W 002°31'0 0.0
2016-Aug-23 16:34N 47°21' W 002°31'0 0.0
2016-Aug-23 15:33N 47°21' W 002°31'0 0.0
2016-Aug-23 14:30N 47°21' W 002°31'0 0.0
2016-Aug-23 09:30N 47°21' W 002°31'0 0.0
2016-Aug-23 08:33N 47°21' W 002°31'0 0.0
2016-Aug-23 07:33N 47°21' W 002°31'0 0.0
2016-Aug-23 06:33N 47°21' W 002°31'0 0.0
2016-Aug-23 05:30N 47°21' W 002°31'0 0.0
2016-Aug-23 04:33N 47°21' W 002°31'0 0.0
2016-Aug-23 03:33N 47°21' W 002°31'0 0.0
2016-Aug-23 02:34N 47°21' W 002°31'0 0.0
2016-Aug-23 01:26N 47°21' W 002°31'0 0.0
2016-Aug-23 00:33N 47°21' W 002°31'0 0.0
2016-Aug-22 23:34N 47°21' W 002°31'0 0.0
2016-Aug-22 22:33N 47°21' W 002°31'0 0.0
2016-Aug-22 19:30N 47°21' W 002°31'0 0.0
2016-Aug-22 18:27N 47°21' W 002°31'0 0.0
2016-Aug-22 16:22N 47°21' W 002°31'0 0.0
2016-Aug-22 15:33N 47°21' W 002°31'0 0.0
2016-Aug-22 14:33N 47°21' W 002°31'0 0.0
2016-Aug-22 13:27N 47°21' W 002°31'0 0.0
2016-Aug-22 12:30N 47°21' W 002°31'0 0.0
2016-Aug-22 11:31N 47°21' W 002°31'0 0.0
2016-Aug-22 10:31N 47°21' W 002°31'0 0.0
2016-Aug-22 09:33N 47°21' W 002°31'0 0.0
2016-Aug-22 08:33N 47°21' W 002°31'0 0.0
2016-Aug-22 07:32N 47°21' W 002°31'0 0.1
2016-Aug-22 06:33N 47°21' W 002°31'0 0.0
2016-Aug-22 05:33N 47°21' W 002°31'0 0.0
2016-Aug-22 04:33N 47°21' W 002°31'0 0.0
2016-Aug-22 03:33N 47°21' W 002°31'0 0.0
2016-Aug-22 02:33N 47°21' W 002°31'0 0.0
2016-Aug-22 01:33N 47°21' W 002°31'0 0.0
2016-Aug-22 00:33N 47°21' W 002°31'0 0.0
2016-Aug-21 23:28N 47°21' W 002°31'0 0.0
2016-Aug-21 22:33N 47°21' W 002°31'0 0.0
2016-Aug-21 21:33N 47°21' W 002°31'0 0.0
2016-Aug-21 20:33N 47°21' W 002°31'0 0.0
2016-Aug-21 19:33N 47°21' W 002°31'0 0.0
2016-Aug-21 18:33N 47°21' W 002°31'0 0.0
2016-Aug-21 17:33N 47°21' W 002°31'0 0.4
2016-Aug-21 16:33N 47°20' W 002°31'10 9.8
2016-Aug-21 15:34N 47°13' W 002°40'1010.1
2016-Aug-21 14:33N 47°08' W 002°53'1010.4
2016-Aug-21 13:33N 47°02' W 003°05'  
2016-Aug-19 04:34N 45°10' W 004°20'24 0.5
2016-Aug-17 07:09N 45°33' W 004°29'4 6.4
2016-Aug-17 06:33N 45°29' W 004°28'6 6.3
2016-Aug-17 05:34N 45°23' W 004°26'6 6.4
2016-Aug-17 04:34N 45°17' W 004°23'5 3.7
2016-Aug-17 03:06N 45°13' W 004°19'8 0.5
2016-Aug-16 10:18N 45°05' W 004°15'1 0.9
2016-Aug-16 09:09N 45°06' W 004°15'1 1.0
2016-Aug-16 08:23N 45°07' W 004°16'1 1.0
2016-Aug-16 07:33N 45°08' W 004°17'6 0.4
2016-Aug-15 17:07N 45°11' W 004°09'11 1.9
2016-Aug-15 11:33N 45°18' W 004°20'6 6.3
2016-Aug-15 10:33N 45°12' W 004°19'6 4.4
2016-Aug-15 09:12N 45°06' W 004°17'23 1.4
2016-Aug-14 16:33N 44°51' W 003°53'16 5.3
2016-Aug-14 13:33N 45°04' W 004°06'6 5.6
2016-Aug-14 12:33N 45°08' W 004°11'  

Dump ship's entire track history